KRR weather

Krasnodar Pashkovsky International Airport
Krasnodar, Krasnodar Krai, Russia

Public forecast

Using degrees Celsius for public forecast. Weather courtesy of forecast.io.

METAR (pilot weather report)

Retrieved 2019/06/16 00:30 UTC (0 seconds ago):

URKK 160030Z VRB01MPS CAVOK 19/12 Q1008 R05R/CLRD70 NOSIG RMK QFE753

TAF (pilot weather forecast)

Forecast is more than 12 hours old.

Retrieved 2019/06/15 00:21 UTC (24 hours ago):

TAF URKK 152248Z 1600/1624 05003G08MPS 9999 SCT040